In Rescue
 
Open Full Screen Window  High Contrast Mode
January 28, 2020 11:45 PM EST
Weather Information
Wind Direction
  ---
Wind Speed
  00 kt (0 mph)
Wind Gust
  00 kt (0 mph)
Altimeter
30.10 in
Visibility
10 SM
Temperature
-01° C
30° F
Dewpoint
-04° C
25° F
Humidity
80%
1hr Rain Fall
00.00 in.
24hr Rain Fall
00.00 in.
Sky Condition
Overcast @ 3,100 ft
VFR

METAR KOZW 290445Z AUTO 00000KT 10SM OVC031 M01/M04 A3010 RMK AO2 T10111045

FAA Disclaimer: The data displayed is for advisory purposes only and is not to be used for flight planning or operations.